sensor_id;sensor_type;location;lat;lon;timestamp;P1;durP1;ratioP1;P2;durP2;ratioP2
14094;SDS011;18096;48.142;16.290;2022-12-18T00:01:03;19.98;;;9.07;;
14094;SDS011;18096;48.142;16.290;2022-12-18T00:03:33;10.90;;;8.20;;
14094;SDS011;18096;48.142;16.290;2022-12-18T00:05:58;12.93;;;7.97;;
14094;SDS011;18096;48.142;16.290;2022-12-18T00:08:24;10.23;;;7.57;;
14094;SDS011;18096;48.142;16.290;2022-12-18T00:10:50;12.65;;;8.45;;
14094;SDS011;18096;48.142;16.290;2022-12-18T00:13:16;14.80;;;8.40;;
14094;SDS011;18096;48.142;16.290;2022-12-18T00:15:41;13.70;;;8.50;;
14094;SDS011;18096;48.142;16.290;2022-12-18T00:18:07;13.43;;;9.67;;
14094;SDS011;18096;48.142;16.290;2022-12-18T00:20:36;17.23;;;8.48;;
14094;SDS011;18096;48.142;16.290;2022-12-18T00:23:03;17.33;;;8.90;;
14094;SDS011;18096;48.142;16.290;2022-12-18T00:25:32;11.55;;;7.70;;
14094;SDS011;18096;48.142;16.290;2022-12-18T00:28:01;17.30;;;8.02;;
14094;SDS011;18096;48.142;16.290;2022-12-18T00:30:30;15.38;;;9.32;;
14094;SDS011;18096;48.142;16.290;2022-12-18T00:32:56;16.83;;;9.80;;
14094;SDS011;18096;48.142;16.290;2022-12-18T00:35:22;12.75;;;8.20;;
14094;SDS011;18096;48.142;16.290;2022-12-18T00:37:48;10.70;;;7.63;;
14094;SDS011;18096;48.142;16.290;2022-12-18T00:40:14;14.93;;;8.10;;
14094;SDS011;18096;48.142;16.290;2022-12-18T00:42:39;11.67;;;8.43;;
14094;SDS011;18096;48.142;16.290;2022-12-18T00:45:24;14.75;;;8.75;;
14094;SDS011;18096;48.142;16.290;2022-12-18T00:47:55;14.48;;;9.10;;
14094;SDS011;18096;48.142;16.290;2022-12-18T00:50:22;13.88;;;7.90;;
14094;SDS011;18096;48.142;16.290;2022-12-18T00:52:49;14.50;;;8.50;;
14094;SDS011;18096;48.142;16.290;2022-12-18T00:55:15;13.23;;;7.80;;
14094;SDS011;18096;48.142;16.290;2022-12-18T00:57:41;15.13;;;8.70;;
14094;SDS011;18096;48.142;16.290;2022-12-18T01:00:08;9.18;;;6.43;;
14094;SDS011;18096;48.142;16.290;2022-12-18T01:02:35;10.75;;;7.03;;
14094;SDS011;18096;48.142;16.290;2022-12-18T01:05:01;11.48;;;6.95;;
14094;SDS011;18096;48.142;16.290;2022-12-18T01:07:27;10.65;;;6.53;;
14094;SDS011;18096;48.142;16.290;2022-12-18T01:09:53;11.02;;;6.90;;
14094;SDS011;18096;48.142;16.290;2022-12-18T01:12:18;16.43;;;7.67;;
14094;SDS011;18096;48.142;16.290;2022-12-18T01:14:44;9.60;;;7.17;;
14094;SDS011;18096;48.142;16.290;2022-12-18T01:17:09;8.10;;;6.57;;
14094;SDS011;18096;48.142;16.290;2022-12-18T01:19:35;11.73;;;6.50;;
14094;SDS011;18096;48.142;16.290;2022-12-18T01:22:01;10.38;;;6.93;;
14094;SDS011;18096;48.142;16.290;2022-12-18T01:24:26;8.33;;;7.07;;
14094;SDS011;18096;48.142;16.290;2022-12-18T01:26:52;10.83;;;7.50;;
14094;SDS011;18096;48.142;16.290;2022-12-18T01:29:18;9.83;;;7.17;;
14094;SDS011;18096;48.142;16.290;2022-12-18T01:31:43;11.10;;;7.03;;
14094;SDS011;18096;48.142;16.290;2022-12-18T01:34:09;11.50;;;8.13;;
14094;SDS011;18096;48.142;16.290;2022-12-18T01:36:35;13.40;;;7.95;;
14094;SDS011;18096;48.142;16.290;2022-12-18T01:39:05;6.75;;;6.13;;
14094;SDS011;18096;48.142;16.290;2022-12-18T01:41:40;12.27;;;6.28;;
14094;SDS011;18096;48.142;16.290;2022-12-18T01:47:49;11.07;;;6.78;;
14094;SDS011;18096;48.142;16.290;2022-12-18T01:50:25;10.82;;;6.22;;
14094;SDS011;18096;48.142;16.290;2022-12-18T01:53:10;7.70;;;6.53;;
14094;SDS011;18096;48.142;16.290;2022-12-18T01:55:53;9.15;;;6.35;;
14094;SDS011;18096;48.142;16.290;2022-12-18T02:01:22;8.75;;;6.47;;
14094;SDS011;18096;48.142;16.290;2022-12-18T02:03:48;7.60;;;6.20;;
14094;SDS011;18096;48.142;16.290;2022-12-18T02:16:55;8.50;;;6.22;;
14094;SDS011;18096;48.142;16.290;2022-12-18T02:28:06;10.35;;;6.80;;
14094;SDS011;18096;48.142;16.290;2022-12-18T02:30:36;10.30;;;6.30;;
14094;SDS011;18096;48.142;16.290;2022-12-18T02:33:04;9.90;;;7.55;;
14094;SDS011;18096;48.142;16.290;2022-12-18T02:35:33;8.10;;;6.80;;
14094;SDS011;18096;48.142;16.290;2022-12-18T02:38:01;12.30;;;6.97;;
14094;SDS011;18096;48.142;16.290;2022-12-18T02:40:28;11.90;;;7.15;;
14094;SDS011;18096;48.142;16.290;2022-12-18T02:42:55;10.27;;;7.47;;
14094;SDS011;18096;48.142;16.290;2022-12-18T02:45:26;10.32;;;7.13;;
14094;SDS011;18096;48.142;16.290;2022-12-18T02:47:52;13.32;;;6.68;;
14094;SDS011;18096;48.142;16.290;2022-12-18T02:50:32;8.73;;;6.25;;
14094;SDS011;18096;48.142;16.290;2022-12-18T02:58:26;7.93;;;5.88;;
14094;SDS011;18096;48.142;16.290;2022-12-18T03:06:29;11.63;;;6.00;;
14094;SDS011;18096;48.142;16.290;2022-12-18T03:08:58;12.90;;;7.07;;
14094;SDS011;18096;48.142;16.290;2022-12-18T03:11:28;10.40;;;6.50;;
14094;SDS011;18096;48.142;16.290;2022-12-18T03:14:15;9.48;;;7.22;;
14094;SDS011;18096;48.142;16.290;2022-12-18T03:16:42;10.95;;;7.20;;
14094;SDS011;18096;48.142;16.290;2022-12-18T03:19:11;11.30;;;6.90;;
14094;SDS011;18096;48.142;16.290;2022-12-18T03:21:45;11.02;;;7.78;;
14094;SDS011;18096;48.142;16.290;2022-12-18T03:24:14;10.48;;;7.30;;
14094;SDS011;18096;48.142;16.290;2022-12-18T03:26:42;9.68;;;7.25;;
14094;SDS011;18096;48.142;16.290;2022-12-18T03:29:45;12.82;;;7.47;;
14094;SDS011;18096;48.142;16.290;2022-12-18T03:32:07;10.90;;;7.60;;
14094;SDS011;18096;48.142;16.290;2022-12-18T03:34:36;11.15;;;8.73;;
14094;SDS011;18096;48.142;16.290;2022-12-18T03:37:05;17.30;;;8.90;;
14094;SDS011;18096;48.142;16.290;2022-12-18T03:39:32;10.93;;;8.48;;
14094;SDS011;18096;48.142;16.290;2022-12-18T03:42:05;15.70;;;8.48;;
14094;SDS011;18096;48.142;16.290;2022-12-18T03:47:26;19.55;;;9.90;;
14094;SDS011;18096;48.142;16.290;2022-12-18T03:50:11;14.68;;;9.57;;
14094;SDS011;18096;48.142;16.290;2022-12-18T03:52:45;12.32;;;8.70;;
14094;SDS011;18096;48.142;16.290;2022-12-18T03:55:19;12.13;;;8.43;;
14094;SDS011;18096;48.142;16.290;2022-12-18T03:57:47;15.65;;;8.82;;
14094;SDS011;18096;48.142;16.290;2022-12-18T04:00:15;16.63;;;9.20;;
14094;SDS011;18096;48.142;16.290;2022-12-18T04:02:43;13.87;;;8.27;;
14094;SDS011;18096;48.142;16.290;2022-12-18T04:05:13;13.90;;;9.13;;
14094;SDS011;18096;48.142;16.290;2022-12-18T04:07:40;18.87;;;9.20;;
14094;SDS011;18096;48.142;16.290;2022-12-18T04:10:07;14.00;;;8.85;;
14094;SDS011;18096;48.142;16.290;2022-12-18T04:12:36;16.88;;;9.93;;
14094;SDS011;18096;48.142;16.290;2022-12-18T04:15:03;15.80;;;10.73;;
14094;SDS011;18096;48.142;16.290;2022-12-18T04:17:29;17.38;;;10.63;;
14094;SDS011;18096;48.142;16.290;2022-12-18T04:19:55;16.85;;;9.50;;
14094;SDS011;18096;48.142;16.290;2022-12-18T04:22:20;15.23;;;9.68;;
14094;SDS011;18096;48.142;16.290;2022-12-18T04:24:46;14.32;;;9.40;;
14094;SDS011;18096;48.142;16.290;2022-12-18T04:27:12;13.00;;;9.97;;
14094;SDS011;18096;48.142;16.290;2022-12-18T04:29:38;19.98;;;9.90;;
14094;SDS011;18096;48.142;16.290;2022-12-18T04:32:04;15.95;;;10.52;;
14094;SDS011;18096;48.142;16.290;2022-12-18T04:34:30;15.88;;;9.18;;
14094;SDS011;18096;48.142;16.290;2022-12-18T04:36:56;17.88;;;10.65;;
14094;SDS011;18096;48.142;16.290;2022-12-18T04:39:21;16.83;;;9.47;;
14094;SDS011;18096;48.142;16.290;2022-12-18T04:41:47;15.13;;;10.00;;
14094;SDS011;18096;48.142;16.290;2022-12-18T04:44:13;17.97;;;9.10;;
14094;SDS011;18096;48.142;16.290;2022-12-18T04:46:39;13.15;;;9.63;;
14094;SDS011;18096;48.142;16.290;2022-12-18T04:49:04;17.43;;;9.70;;
14094;SDS011;18096;48.142;16.290;2022-12-18T04:51:30;16.13;;;9.45;;
14094;SDS011;18096;48.142;16.290;2022-12-18T04:53:55;15.40;;;9.90;;
14094;SDS011;18096;48.142;16.290;2022-12-18T04:56:21;14.13;;;10.07;;
14094;SDS011;18096;48.142;16.290;2022-12-18T04:58:47;18.73;;;10.02;;
14094;SDS011;18096;48.142;16.290;2022-12-18T05:01:14;15.77;;;9.47;;
14094;SDS011;18096;48.142;16.290;2022-12-18T05:03:41;15.95;;;10.63;;
14094;SDS011;18096;48.142;16.290;2022-12-18T05:06:07;15.60;;;9.18;;
14094;SDS011;18096;48.142;16.290;2022-12-18T05:08:33;16.75;;;10.13;;
14094;SDS011;18096;48.142;16.290;2022-12-18T05:11:00;14.73;;;10.50;;
14094;SDS011;18096;48.142;16.290;2022-12-18T05:13:31;19.98;;;10.77;;
14094;SDS011;18096;48.142;16.290;2022-12-18T05:15:57;17.52;;;11.27;;
14094;SDS011;18096;48.142;16.290;2022-12-18T05:18:23;12.77;;;8.70;;
14094;SDS011;18096;48.142;16.290;2022-12-18T05:20:50;12.30;;;9.60;;
14094;SDS011;18096;48.142;16.290;2022-12-18T05:23:16;18.42;;;10.48;;
14094;SDS011;18096;48.142;16.290;2022-12-18T05:25:42;17.83;;;10.60;;
14094;SDS011;18096;48.142;16.290;2022-12-18T05:28:17;15.83;;;9.50;;
14094;SDS011;18096;48.142;16.290;2022-12-18T05:30:47;12.90;;;9.85;;
14094;SDS011;18096;48.142;16.290;2022-12-18T05:33:14;14.40;;;9.55;;
14094;SDS011;18096;48.142;16.290;2022-12-18T05:35:40;16.33;;;10.20;;
14094;SDS011;18096;48.142;16.290;2022-12-18T05:38:05;17.02;;;9.15;;
14094;SDS011;18096;48.142;16.290;2022-12-18T05:40:31;15.50;;;10.57;;
14094;SDS011;18096;48.142;16.290;2022-12-18T05:42:57;17.90;;;8.40;;
14094;SDS011;18096;48.142;16.290;2022-12-18T05:45:22;14.80;;;9.60;;
14094;SDS011;18096;48.142;16.290;2022-12-18T05:47:48;17.63;;;10.30;;
14094;SDS011;18096;48.142;16.290;2022-12-18T05:50:14;11.27;;;8.50;;
14094;SDS011;18096;48.142;16.290;2022-12-18T05:52:39;22.48;;;9.65;;
14094;SDS011;18096;48.142;16.290;2022-12-18T05:55:05;25.98;;;11.15;;
14094;SDS011;18096;48.142;16.290;2022-12-18T05:57:31;20.75;;;10.27;;
14094;SDS011;18096;48.142;16.290;2022-12-18T05:59:56;11.87;;;9.03;;
14094;SDS011;18096;48.142;16.290;2022-12-18T06:02:22;16.07;;;9.60;;
14094;SDS011;18096;48.142;16.290;2022-12-18T06:04:48;17.50;;;9.70;;
14094;SDS011;18096;48.142;16.290;2022-12-18T06:07:13;18.43;;;9.77;;
14094;SDS011;18096;48.142;16.290;2022-12-18T06:09:39;18.23;;;10.85;;
14094;SDS011;18096;48.142;16.290;2022-12-18T06:12:05;17.10;;;9.60;;
14094;SDS011;18096;48.142;16.290;2022-12-18T06:14:31;16.83;;;9.82;;
14094;SDS011;18096;48.142;16.290;2022-12-18T06:16:56;14.45;;;8.80;;
14094;SDS011;18096;48.142;16.290;2022-12-18T06:19:22;18.13;;;9.70;;
14094;SDS011;18096;48.142;16.290;2022-12-18T06:21:48;15.40;;;9.80;;
14094;SDS011;18096;48.142;16.290;2022-12-18T06:24:14;17.58;;;9.90;;
14094;SDS011;18096;48.142;16.290;2022-12-18T06:26:40;14.02;;;9.25;;
14094;SDS011;18096;48.142;16.290;2022-12-18T06:29:06;13.10;;;9.95;;
14094;SDS011;18096;48.142;16.290;2022-12-18T06:31:32;14.02;;;9.85;;
14094;SDS011;18096;48.142;16.290;2022-12-18T06:33:57;19.60;;;9.73;;
14094;SDS011;18096;48.142;16.290;2022-12-18T06:36:23;13.25;;;9.68;;
14094;SDS011;18096;48.142;16.290;2022-12-18T06:38:49;15.13;;;9.32;;
14094;SDS011;18096;48.142;16.290;2022-12-18T06:41:19;13.93;;;10.10;;
14094;SDS011;18096;48.142;16.290;2022-12-18T06:43:45;14.77;;;10.43;;
14094;SDS011;18096;48.142;16.290;2022-12-18T06:46:11;13.30;;;9.32;;
14094;SDS011;18096;48.142;16.290;2022-12-18T06:48:38;16.58;;;10.10;;
14094;SDS011;18096;48.142;16.290;2022-12-18T06:51:04;21.40;;;12.07;;
14094;SDS011;18096;48.142;16.290;2022-12-18T06:53:30;17.90;;;11.00;;
14094;SDS011;18096;48.142;16.290;2022-12-18T06:56:00;18.00;;;10.35;;
14094;SDS011;18096;48.142;16.290;2022-12-18T06:58:31;18.48;;;10.70;;
14094;SDS011;18096;48.142;16.290;2022-12-18T07:01:00;18.95;;;11.00;;
14094;SDS011;18096;48.142;16.290;2022-12-18T07:03:27;18.05;;;11.02;;
14094;SDS011;18096;48.142;16.290;2022-12-18T07:05:54;16.38;;;9.50;;
14094;SDS011;18096;48.142;16.290;2022-12-18T07:08:20;14.77;;;10.40;;
14094;SDS011;18096;48.142;16.290;2022-12-18T07:10:46;12.43;;;9.30;;
14094;SDS011;18096;48.142;16.290;2022-12-18T07:13:14;17.95;;;9.65;;
14094;SDS011;18096;48.142;16.290;2022-12-18T07:15:40;22.90;;;10.90;;
14094;SDS011;18096;48.142;16.290;2022-12-18T07:18:06;17.67;;;11.18;;
14094;SDS011;18096;48.142;16.290;2022-12-18T07:20:31;15.80;;;10.07;;
14094;SDS011;18096;48.142;16.290;2022-12-18T07:23:00;14.30;;;10.33;;
14094;SDS011;18096;48.142;16.290;2022-12-18T07:25:27;16.65;;;9.98;;
14094;SDS011;18096;48.142;16.290;2022-12-18T07:27:54;18.05;;;10.05;;
14094;SDS011;18096;48.142;16.290;2022-12-18T07:30:19;16.45;;;10.55;;
14094;SDS011;18096;48.142;16.290;2022-12-18T07:32:45;13.60;;;10.35;;
14094;SDS011;18096;48.142;16.290;2022-12-18T07:35:11;18.80;;;10.82;;
14094;SDS011;18096;48.142;16.290;2022-12-18T07:37:36;17.30;;;9.93;;
14094;SDS011;18096;48.142;16.290;2022-12-18T07:40:02;26.80;;;12.23;;
14094;SDS011;18096;48.142;16.290;2022-12-18T07:42:28;16.00;;;10.37;;
14094;SDS011;18096;48.142;16.290;2022-12-18T07:44:56;15.07;;;10.73;;
14094;SDS011;18096;48.142;16.290;2022-12-18T07:47:25;16.20;;;10.95;;
14094;SDS011;18096;48.142;16.290;2022-12-18T07:49:51;18.05;;;11.50;;
14094;SDS011;18096;48.142;16.290;2022-12-18T07:52:17;20.13;;;12.98;;
14094;SDS011;18096;48.142;16.290;2022-12-18T07:54:42;23.48;;;13.13;;
14094;SDS011;18096;48.142;16.290;2022-12-18T07:57:08;26.17;;;14.60;;
14094;SDS011;18096;48.142;16.290;2022-12-18T07:59:34;17.90;;;12.85;;
14094;SDS011;18096;48.142;16.290;2022-12-18T08:02:00;23.98;;;12.60;;
14094;SDS011;18096;48.142;16.290;2022-12-18T08:04:25;18.23;;;10.27;;
14094;SDS011;18096;48.142;16.290;2022-12-18T08:06:51;21.45;;;11.25;;
14094;SDS011;18096;48.142;16.290;2022-12-18T08:09:17;19.50;;;11.35;;
14094;SDS011;18096;48.142;16.290;2022-12-18T08:11:43;18.40;;;11.37;;
14094;SDS011;18096;48.142;16.290;2022-12-18T08:14:09;19.23;;;10.15;;
14094;SDS011;18096;48.142;16.290;2022-12-18T08:16:35;19.27;;;12.63;;
14094;SDS011;18096;48.142;16.290;2022-12-18T08:19:01;18.95;;;13.20;;
14094;SDS011;18096;48.142;16.290;2022-12-18T08:21:28;21.98;;;12.60;;
14094;SDS011;18096;48.142;16.290;2022-12-18T08:23:56;18.45;;;11.38;;
14094;SDS011;18096;48.142;16.290;2022-12-18T08:26:24;19.63;;;12.88;;
14094;SDS011;18096;48.142;16.290;2022-12-18T08:28:53;21.30;;;12.80;;
14094;SDS011;18096;48.142;16.290;2022-12-18T08:31:22;26.50;;;13.63;;
14094;SDS011;18096;48.142;16.290;2022-12-18T08:33:49;24.97;;;14.00;;
14094;SDS011;18096;48.142;16.290;2022-12-18T08:36:17;25.20;;;12.27;;
14094;SDS011;18096;48.142;16.290;2022-12-18T08:38:44;22.83;;;12.88;;
14094;SDS011;18096;48.142;16.290;2022-12-18T08:41:11;25.33;;;14.15;;
14094;SDS011;18096;48.142;16.290;2022-12-18T08:43:38;21.45;;;13.82;;
14094;SDS011;18096;48.142;16.290;2022-12-18T08:46:23;22.70;;;13.40;;
14094;SDS011;18096;48.142;16.290;2022-12-18T08:48:50;18.73;;;12.90;;
14094;SDS011;18096;48.142;16.290;2022-12-18T08:51:17;22.50;;;13.00;;
14094;SDS011;18096;48.142;16.290;2022-12-18T08:53:44;23.52;;;13.90;;
14094;SDS011;18096;48.142;16.290;2022-12-18T08:56:10;27.55;;;12.20;;
14094;SDS011;18096;48.142;16.290;2022-12-18T08:58:36;32.10;;;12.77;;
14094;SDS011;18096;48.142;16.290;2022-12-18T09:01:02;25.00;;;13.27;;
14094;SDS011;18096;48.142;16.290;2022-12-18T09:03:29;23.52;;;12.48;;
14094;SDS011;18096;48.142;16.290;2022-12-18T09:05:55;21.13;;;12.90;;
14094;SDS011;18096;48.142;16.290;2022-12-18T09:08:21;21.40;;;12.30;;
14094;SDS011;18096;48.142;16.290;2022-12-18T09:10:48;24.03;;;12.13;;
14094;SDS011;18096;48.142;16.290;2022-12-18T09:13:15;24.83;;;13.35;;
14094;SDS011;18096;48.142;16.290;2022-12-18T09:15:42;28.83;;;13.23;;
14094;SDS011;18096;48.142;16.290;2022-12-18T09:18:10;22.35;;;13.93;;
14094;SDS011;18096;48.142;16.290;2022-12-18T09:20:36;24.80;;;13.52;;
14094;SDS011;18096;48.142;16.290;2022-12-18T09:23:02;35.70;;;15.18;;
14094;SDS011;18096;48.142;16.290;2022-12-18T09:25:29;23.35;;;13.68;;
14094;SDS011;18096;48.142;16.290;2022-12-18T09:28:05;25.05;;;14.35;;
14094;SDS011;18096;48.142;16.290;2022-12-18T09:30:36;23.92;;;12.95;;
14094;SDS011;18096;48.142;16.290;2022-12-18T09:33:06;26.27;;;15.07;;
14094;SDS011;18096;48.142;16.290;2022-12-18T09:35:32;28.70;;;14.83;;
14094;SDS011;18096;48.142;16.290;2022-12-18T09:38:01;24.70;;;14.25;;
14094;SDS011;18096;48.142;16.290;2022-12-18T09:40:28;25.47;;;15.00;;
14094;SDS011;18096;48.142;16.290;2022-12-18T09:42:59;27.00;;;15.07;;
14094;SDS011;18096;48.142;16.290;2022-12-18T09:45:30;30.93;;;15.60;;
14094;SDS011;18096;48.142;16.290;2022-12-18T09:48:03;27.02;;;14.95;;
14094;SDS011;18096;48.142;16.290;2022-12-18T09:50:34;34.22;;;16.65;;
14094;SDS011;18096;48.142;16.290;2022-12-18T09:53:07;33.78;;;15.77;;
14094;SDS011;18096;48.142;16.290;2022-12-18T09:55:41;33.25;;;15.05;;
14094;SDS011;18096;48.142;16.290;2022-12-18T10:00:34;27.50;;;15.60;;
14094;SDS011;18096;48.142;16.290;2022-12-18T10:03:03;25.50;;;15.33;;
14094;SDS011;18096;48.142;16.290;2022-12-18T10:05:44;30.55;;;16.00;;
14094;SDS011;18096;48.142;16.290;2022-12-18T10:08:18;31.85;;;16.55;;
14094;SDS011;18096;48.142;16.290;2022-12-18T10:14:11;28.70;;;17.30;;
14094;SDS011;18096;48.142;16.290;2022-12-18T10:20:33;35.53;;;17.88;;
14094;SDS011;18096;48.142;16.290;2022-12-18T10:28:37;39.08;;;19.42;;
14094;SDS011;18096;48.142;16.290;2022-12-18T10:31:05;33.33;;;17.63;;
14094;SDS011;18096;48.142;16.290;2022-12-18T10:33:53;26.10;;;16.45;;
14094;SDS011;18096;48.142;16.290;2022-12-18T10:36:20;32.35;;;17.75;;
14094;SDS011;18096;48.142;16.290;2022-12-18T10:38:45;28.00;;;16.70;;
14094;SDS011;18096;48.142;16.290;2022-12-18T10:43:44;32.60;;;16.95;;
14094;SDS011;18096;48.142;16.290;2022-12-18T10:46:12;26.77;;;17.15;;
14094;SDS011;18096;48.142;16.290;2022-12-18T10:51:22;29.60;;;16.05;;
14094;SDS011;18096;48.142;16.290;2022-12-18T10:53:54;30.25;;;15.35;;
14094;SDS011;18096;48.142;16.290;2022-12-18T10:56:22;30.17;;;17.00;;
14094;SDS011;18096;48.142;16.290;2022-12-18T10:59:01;25.75;;;15.35;;
14094;SDS011;18096;48.142;16.290;2022-12-18T11:04:17;29.10;;;14.93;;
14094;SDS011;18096;48.142;16.290;2022-12-18T11:09:33;31.10;;;16.17;;
14094;SDS011;18096;48.142;16.290;2022-12-18T11:12:02;29.85;;;15.50;;
14094;SDS011;18096;48.142;16.290;2022-12-18T11:17:17;36.50;;;18.17;;
14094;SDS011;18096;48.142;16.290;2022-12-18T11:20:01;42.88;;;18.60;;
14094;SDS011;18096;48.142;16.290;2022-12-18T11:22:31;30.38;;;17.05;;
14094;SDS011;18096;48.142;16.290;2022-12-18T11:27:40;30.35;;;16.17;;
14094;SDS011;18096;48.142;16.290;2022-12-18T11:30:20;30.90;;;17.70;;
14094;SDS011;18096;48.142;16.290;2022-12-18T11:32:50;38.83;;;17.05;;
14094;SDS011;18096;48.142;16.290;2022-12-18T11:35:47;30.50;;;18.30;;
14094;SDS011;18096;48.142;16.290;2022-12-18T11:43:50;39.10;;;18.20;;
14094;SDS011;18096;48.142;16.290;2022-12-18T11:46:23;34.38;;;17.40;;
14094;SDS011;18096;48.142;16.290;2022-12-18T11:49:10;32.28;;;17.17;;
14094;SDS011;18096;48.142;16.290;2022-12-18T11:51:44;34.50;;;17.17;;
14094;SDS011;18096;48.142;16.290;2022-12-18T11:54:29;31.70;;;16.48;;
14094;SDS011;18096;48.142;16.290;2022-12-18T12:05:40;30.00;;;15.98;;
14094;SDS011;18096;48.142;16.290;2022-12-18T12:13:53;34.85;;;16.92;;
14094;SDS011;18096;48.142;16.290;2022-12-18T12:16:29;36.92;;;17.45;;
14094;SDS011;18096;48.142;16.290;2022-12-18T12:22:15;41.40;;;16.55;;
14094;SDS011;18096;48.142;16.290;2022-12-18T12:30:29;49.80;;;24.23;;
14094;SDS011;18096;48.142;16.290;2022-12-18T12:38:57;32.53;;;16.05;;
14094;SDS011;18096;48.142;16.290;2022-12-18T12:41:27;34.10;;;17.53;;
14094;SDS011;18096;48.142;16.290;2022-12-18T12:44:22;38.10;;;19.83;;
14094;SDS011;18096;48.142;16.290;2022-12-18T12:46:52;36.92;;;17.95;;
14094;SDS011;18096;48.142;16.290;2022-12-18T12:49:22;29.90;;;16.30;;
14094;SDS011;18096;48.142;16.290;2022-12-18T12:52:00;40.05;;;18.85;;
14094;SDS011;18096;48.142;16.290;2022-12-18T12:54:41;35.85;;;18.30;;
14094;SDS011;18096;48.142;16.290;2022-12-18T12:57:20;34.17;;;16.73;;
14094;SDS011;18096;48.142;16.290;2022-12-18T12:59:57;47.50;;;19.20;;
14094;SDS011;18096;48.142;16.290;2022-12-18T13:07:52;30.92;;;17.58;;
14094;SDS011;18096;48.142;16.290;2022-12-18T13:10:23;33.22;;;17.80;;
14094;SDS011;18096;48.142;16.290;2022-12-18T13:15:43;34.55;;;18.33;;
14094;SDS011;18096;48.142;16.290;2022-12-18T13:23:35;35.95;;;17.73;;
14094;SDS011;18096;48.142;16.290;2022-12-18T13:31:15;42.80;;;19.93;;
14094;SDS011;18096;48.142;16.290;2022-12-18T13:34:18;36.25;;;19.48;;
14094;SDS011;18096;48.142;16.290;2022-12-18T13:36:45;35.15;;;17.90;;
14094;SDS011;18096;48.142;16.290;2022-12-18T13:41:47;37.40;;;17.83;;
14094;SDS011;18096;48.142;16.290;2022-12-18T13:46:49;38.30;;;17.48;;
14094;SDS011;18096;48.142;16.290;2022-12-18T13:51:48;36.23;;;16.03;;
14094;SDS011;18096;48.142;16.290;2022-12-18T13:54:21;35.42;;;18.15;;
14094;SDS011;18096;48.142;16.290;2022-12-18T13:56:57;25.80;;;16.35;;
14094;SDS011;18096;48.142;16.290;2022-12-18T13:59:44;31.57;;;16.40;;
14094;SDS011;18096;48.142;16.290;2022-12-18T14:02:13;24.58;;;15.07;;
14094;SDS011;18096;48.142;16.290;2022-12-18T14:04:41;37.63;;;21.20;;
14094;SDS011;18096;48.142;16.290;2022-12-18T14:07:11;36.95;;;20.48;;
14094;SDS011;18096;48.142;16.290;2022-12-18T14:09:46;31.50;;;15.07;;
14094;SDS011;18096;48.142;16.290;2022-12-18T14:12:16;36.17;;;18.65;;
14094;SDS011;18096;48.142;16.290;2022-12-18T14:15:03;32.17;;;16.13;;
14094;SDS011;18096;48.142;16.290;2022-12-18T14:17:31;34.67;;;19.67;;
14094;SDS011;18096;48.142;16.290;2022-12-18T14:19:57;35.95;;;16.70;;
14094;SDS011;18096;48.142;16.290;2022-12-18T14:22:24;32.47;;;15.75;;
14094;SDS011;18096;48.142;16.290;2022-12-18T14:28:14;41.67;;;18.48;;
14094;SDS011;18096;48.142;16.290;2022-12-18T14:30:41;31.25;;;17.90;;
14094;SDS011;18096;48.142;16.290;2022-12-18T14:33:09;30.27;;;17.52;;
14094;SDS011;18096;48.142;16.290;2022-12-18T14:35:38;27.67;;;15.02;;
14094;SDS011;18096;48.142;16.290;2022-12-18T14:40:53;30.27;;;18.90;;
14094;SDS011;18096;48.142;16.290;2022-12-18T14:43:28;33.58;;;18.33;;
14094;SDS011;18096;48.142;16.290;2022-12-18T14:45:56;37.97;;;17.40;;
14094;SDS011;18096;48.142;16.290;2022-12-18T14:51:00;36.77;;;19.07;;
14094;SDS011;18096;48.142;16.290;2022-12-18T14:53:36;35.47;;;17.63;;
14094;SDS011;18096;48.142;16.290;2022-12-18T14:56:16;41.65;;;18.20;;
14094;SDS011;18096;48.142;16.290;2022-12-18T14:58:45;31.15;;;17.50;;
14094;SDS011;18096;48.142;16.290;2022-12-18T15:03:53;45.63;;;20.33;;
14094;SDS011;18096;48.142;16.290;2022-12-18T15:08:55;40.15;;;20.95;;
14094;SDS011;18096;48.142;16.290;2022-12-18T15:11:26;44.38;;;21.02;;
14094;SDS011;18096;48.142;16.290;2022-12-18T15:14:32;52.27;;;23.63;;
14094;SDS011;18096;48.142;16.290;2022-12-18T15:17:05;46.72;;;23.38;;
14094;SDS011;18096;48.142;16.290;2022-12-18T15:19:40;43.13;;;21.75;;
14094;SDS011;18096;48.142;16.290;2022-12-18T15:24:55;48.92;;;22.50;;
14094;SDS011;18096;48.142;16.290;2022-12-18T15:27:27;46.10;;;23.02;;
14094;SDS011;18096;48.142;16.290;2022-12-18T15:32:38;40.28;;;23.17;;
14094;SDS011;18096;48.142;16.290;2022-12-18T15:37:39;42.05;;;21.45;;
14094;SDS011;18096;48.142;16.290;2022-12-18T15:40:06;47.17;;;21.80;;
14094;SDS011;18096;48.142;16.290;2022-12-18T15:42:53;45.10;;;21.60;;
14094;SDS011;18096;48.142;16.290;2022-12-18T15:45:39;48.58;;;22.23;;
14094;SDS011;18096;48.142;16.290;2022-12-18T15:48:13;48.25;;;21.63;;
14094;SDS011;18096;48.142;16.290;2022-12-18T15:50:50;47.65;;;23.23;;
14094;SDS011;18096;48.142;16.290;2022-12-18T15:53:22;40.65;;;20.60;;
14094;SDS011;18096;48.142;16.290;2022-12-18T15:55:49;44.83;;;22.48;;
14094;SDS011;18096;48.142;16.290;2022-12-18T15:58:35;47.40;;;21.20;;
14094;SDS011;18096;48.142;16.290;2022-12-18T16:01:02;43.45;;;22.00;;
14094;SDS011;18096;48.142;16.290;2022-12-18T16:03:28;43.17;;;20.42;;
14094;SDS011;18096;48.142;16.290;2022-12-18T16:05:54;47.90;;;21.00;;
14094;SDS011;18096;48.142;16.290;2022-12-18T16:08:22;54.90;;;22.75;;
14094;SDS011;18096;48.142;16.290;2022-12-18T16:10:49;49.40;;;22.65;;
14094;SDS011;18096;48.142;16.290;2022-12-18T16:13:16;47.37;;;21.30;;
14094;SDS011;18096;48.142;16.290;2022-12-18T16:15:45;39.22;;;20.60;;
14094;SDS011;18096;48.142;16.290;2022-12-18T16:18:11;39.13;;;18.42;;
14094;SDS011;18096;48.142;16.290;2022-12-18T16:20:37;28.52;;;16.73;;
14094;SDS011;18096;48.142;16.290;2022-12-18T16:23:03;26.60;;;16.98;;
14094;SDS011;18096;48.142;16.290;2022-12-18T16:25:29;38.50;;;17.70;;
14094;SDS011;18096;48.142;16.290;2022-12-18T16:27:57;31.83;;;16.17;;
14094;SDS011;18096;48.142;16.290;2022-12-18T16:30:29;30.33;;;17.02;;
14094;SDS011;18096;48.142;16.290;2022-12-18T16:32:56;33.22;;;18.25;;
14094;SDS011;18096;48.142;16.290;2022-12-18T16:35:23;28.80;;;16.05;;
14094;SDS011;18096;48.142;16.290;2022-12-18T16:37:50;30.10;;;16.35;;
14094;SDS011;18096;48.142;16.290;2022-12-18T16:40:17;36.10;;;18.20;;
14094;SDS011;18096;48.142;16.290;2022-12-18T16:42:44;36.33;;;16.27;;
14094;SDS011;18096;48.142;16.290;2022-12-18T16:45:14;29.80;;;16.73;;
14094;SDS011;18096;48.142;16.290;2022-12-18T16:47:41;29.60;;;16.55;;
14094;SDS011;18096;48.142;16.290;2022-12-18T16:50:08;27.75;;;16.88;;
14094;SDS011;18096;48.142;16.290;2022-12-18T16:52:35;29.48;;;16.60;;
14094;SDS011;18096;48.142;16.290;2022-12-18T16:55:01;27.73;;;15.77;;
14094;SDS011;18096;48.142;16.290;2022-12-18T16:57:27;29.75;;;15.65;;
14094;SDS011;18096;48.142;16.290;2022-12-18T16:59:54;31.77;;;15.57;;